EIY weather

Ein Yahav Airfield
Sapir, Southern District, Israel

Public forecast

Using degrees Celsius for public forecast. Weather courtesy of forecast.io.

Closest aviation weather report (METAR) to Ein Yahav Airfield

Report is more than 6 hours old.

Closest report is Ovda International Airport, 43.2 nm (80.0 km) SSW. Retrieved 2019/03/31 19:50 UTC (10 months ago):

LLOV 311950Z 24007KT CAVOK 12/00 Q1012

Closest aviation forecast (TAF) to Ein Yahav Airfield

Forecast is more than 12 hours old.

Closest forecast is Ovda International Airport, 43.2 nm (80.0 km) SSW. Retrieved 2019/05/15 00:06 UTC (8 months ago):

TAF LLOV 152302Z 1600/1624 35007KT CAVOK TEMPO 1607/1618 02015KT TX31/1612Z TN19/1604Z